createdAt,value
2018-02-24T00:01:21.899Z,2.46
2018-02-24T00:03:52.433Z,2.42
2018-02-24T00:06:21.807Z,2.42
2018-02-24T00:08:51.588Z,2.37
2018-02-24T00:11:20.817Z,2.42
2018-02-24T00:13:50.051Z,2.40
2018-02-24T00:16:20.283Z,2.45
2018-02-24T00:18:49.650Z,2.40
2018-02-24T00:21:18.951Z,2.38
2018-02-24T00:23:48.872Z,2.36
2018-02-24T00:26:18.136Z,2.42
2018-02-24T00:28:47.355Z,2.38
2018-02-24T00:31:17.043Z,2.40
2018-02-24T00:33:46.279Z,2.35
2018-02-24T00:36:15.476Z,2.26
2018-02-24T00:38:44.663Z,2.23
2018-02-24T00:41:13.940Z,2.22
2018-02-24T00:43:44.342Z,2.20
2018-02-24T00:46:13.664Z,2.19
2018-02-24T00:48:42.999Z,2.16
2018-02-24T00:51:12.709Z,2.12
2018-02-24T00:53:42.042Z,2.13
2018-02-24T00:56:11.842Z,2.12
2018-02-24T00:58:41.610Z,2.10
2018-02-24T01:01:10.841Z,2.02
2018-02-24T01:03:40.058Z,2.00
2018-02-24T01:06:09.715Z,1.97
2018-02-24T01:08:39.276Z,1.93
2018-02-24T01:11:08.494Z,1.91
2018-02-24T01:13:38.811Z,1.89
2018-02-24T01:16:08.055Z,1.92
2018-02-24T01:18:37.257Z,1.89
2018-02-24T01:21:09.436Z,1.87
2018-02-24T01:23:38.758Z,1.81
2018-02-24T01:26:07.990Z,1.84
2018-02-24T01:28:37.313Z,1.81
2018-02-24T01:31:06.530Z,1.78
2018-02-24T01:33:36.085Z,1.72
2018-02-24T01:36:05.873Z,1.69
2018-02-24T01:38:35.074Z,1.63
2018-02-24T01:41:05.058Z,1.61
2018-02-24T01:43:34.757Z,1.60
2018-02-24T01:46:05.570Z,1.56
2018-02-24T01:48:35.226Z,1.54
2018-02-24T01:51:04.523Z,1.49
2018-02-24T01:53:33.745Z,1.45
2018-02-24T01:56:04.614Z,1.48
2018-02-24T01:58:33.862Z,1.49
2018-02-24T02:01:03.382Z,1.46
2018-02-24T02:03:33.345Z,1.43
2018-02-24T02:06:03.657Z,1.44
2018-02-24T02:08:32.891Z,1.47
2018-02-24T02:11:02.777Z,1.41
2018-02-24T02:13:32.047Z,1.38
2018-02-24T02:16:01.538Z,1.39
2018-02-24T02:18:31.284Z,1.32
2018-02-24T02:21:01.134Z,1.34
2018-02-24T02:23:30.481Z,1.27
2018-02-24T02:26:00.254Z,1.23
2018-02-24T02:28:29.990Z,1.26
2018-02-24T02:30:59.510Z,1.25
2018-02-24T02:33:29.295Z,1.27
2018-02-24T02:35:58.569Z,1.26
2018-02-24T02:38:27.939Z,1.26
2018-02-24T02:43:32.978Z,1.21
2018-02-24T02:46:03.193Z,1.21
2018-02-24T02:48:33.431Z,1.24
2018-02-24T02:51:03.036Z,1.21
2018-02-24T02:53:32.261Z,1.20
2018-02-24T02:56:04.023Z,1.19
2018-02-24T02:58:33.478Z,1.15
2018-02-24T03:01:03.289Z,1.13
2018-02-24T03:03:34.146Z,1.06
2018-02-24T03:08:36.317Z,1.00
2018-02-24T03:11:06.225Z,0.95
2018-02-24T03:13:35.452Z,0.96
2018-02-24T03:16:05.510Z,0.95
2018-02-24T03:18:35.071Z,0.93
2018-02-24T03:21:05.002Z,0.90
2018-02-24T03:23:34.464Z,0.70
2018-02-24T03:26:05.472Z,0.70
2018-02-24T03:28:34.795Z,0.68
2018-02-24T03:31:04.023Z,0.65
2018-02-24T03:33:33.726Z,0.63
2018-02-24T03:36:04.551Z,0.56
2018-02-24T03:38:33.870Z,0.57
2018-02-24T03:41:03.605Z,0.59
2018-02-24T03:43:32.825Z,0.54
2018-02-24T03:46:03.004Z,0.60
2018-02-24T03:48:32.784Z,0.65
2018-02-24T03:51:01.993Z,0.67
2018-02-24T03:53:31.335Z,0.66
2018-02-24T03:56:01.010Z,0.69
2018-02-24T03:58:30.962Z,0.59
2018-02-24T04:01:00.145Z,0.62
2018-02-24T04:03:29.924Z,0.65
2018-02-24T04:05:59.278Z,0.65
2018-02-24T04:08:28.494Z,0.62
2018-02-24T04:10:58.124Z,0.62
2018-02-24T04:13:27.325Z,0.61
2018-02-24T04:15:56.568Z,0.60
2018-02-24T04:18:26.211Z,0.60
2018-02-24T04:20:55.415Z,0.56
2018-02-24T04:23:24.629Z,0.54
2018-02-24T04:25:54.243Z,0.49
2018-02-24T04:28:23.457Z,0.44
2018-02-24T04:30:52.685Z,0.39
2018-02-24T04:33:23.367Z,0.37
2018-02-24T04:35:52.572Z,0.36
2018-02-24T04:38:21.790Z,0.34
2018-02-24T04:40:56.624Z,0.37
2018-02-24T04:43:26.055Z,0.35
2018-02-24T04:45:55.342Z,0.38
2018-02-24T04:48:25.039Z,0.39
2018-02-24T04:50:54.273Z,0.39
2018-02-24T04:53:23.513Z,0.44
2018-02-24T04:55:53.131Z,0.47
2018-02-24T04:58:22.345Z,0.48
2018-02-24T05:00:51.617Z,0.42
2018-02-24T05:03:21.262Z,0.46
2018-02-24T05:05:50.492Z,0.42
2018-02-24T05:08:20.045Z,0.41
2018-02-24T05:10:49.623Z,0.42
2018-02-24T05:13:18.893Z,0.38
2018-02-24T05:15:48.217Z,0.34
2018-02-24T05:18:17.954Z,0.30
2018-02-24T05:20:47.195Z,0.25
2018-02-24T05:23:16.436Z,0.26
2018-02-24T05:25:46.209Z,0.21
2018-02-24T05:28:15.428Z,0.28
2018-02-24T05:30:44.677Z,0.26
2018-02-24T05:33:14.313Z,0.15
2018-02-24T05:35:43.544Z,0.19
2018-02-24T05:38:12.811Z,0.17
2018-02-24T05:40:42.415Z,0.15
2018-02-24T05:44:42.390Z,0.20
2018-02-24T05:47:13.313Z,0.15
2018-02-24T05:49:42.582Z,0.19
2018-02-24T05:52:11.803Z,0.12
2018-02-24T05:54:41.049Z,0.12
2018-02-24T05:57:10.291Z,0.14
2018-02-24T05:59:40.393Z,0.16
2018-02-24T06:02:09.630Z,0.13
2018-02-24T06:04:38.890Z,0.16
2018-02-24T06:07:08.134Z,0.15
2018-02-24T06:09:37.380Z,0.11
2018-02-24T06:12:07.080Z,0.10
2018-02-24T06:14:36.280Z,0.06
2018-02-24T06:17:05.843Z,0.08
2018-02-24T06:19:35.583Z,0.10
2018-02-24T06:22:05.323Z,0.02
2018-02-24T06:24:34.586Z,0.04
2018-02-24T06:27:06.417Z,-0.01
2018-02-24T06:29:35.906Z,0.04
2018-02-24T06:32:05.912Z,-0.03
2018-02-24T06:34:35.591Z,-0.01
2018-02-24T06:37:05.038Z,0.05
2018-02-24T06:39:34.868Z,0.10
2018-02-24T06:42:05.830Z,0.11
2018-02-24T06:44:36.306Z,0.12
2018-02-24T06:47:06.768Z,0.08
2018-02-24T06:49:38.419Z,0.07
2018-02-24T06:52:09.177Z,0.08
2018-02-24T06:54:39.078Z,0.06
2018-02-24T06:57:08.845Z,0.10
2018-02-24T06:59:38.136Z,0.18
2018-02-24T07:02:07.378Z,0.23
2018-02-24T07:04:39.069Z,0.33
2018-02-24T07:07:08.424Z,0.43
2018-02-24T07:09:37.733Z,0.42
2018-02-24T07:12:11.512Z,0.48
2018-02-24T07:14:41.999Z,0.42
2018-02-24T07:17:11.396Z,0.47
2018-02-24T07:19:41.161Z,0.44
2018-02-24T07:22:10.455Z,0.54
2018-02-24T07:24:39.909Z,0.55
2018-02-24T07:27:09.542Z,0.61
2018-02-24T07:29:38.838Z,0.67
2018-02-24T07:32:08.066Z,0.73
2018-02-24T07:34:38.163Z,0.71
2018-02-24T07:37:07.519Z,0.62
2018-02-24T07:39:36.802Z,0.72
2018-02-24T07:42:06.488Z,0.81
2018-02-24T07:44:35.748Z,0.91
2018-02-24T07:47:05.274Z,1.01
2018-02-24T07:49:34.859Z,1.21
2018-02-24T07:52:05.201Z,1.40
2018-02-24T07:54:34.603Z,1.68
2018-02-24T07:57:04.248Z,2.68
2018-02-24T07:59:33.512Z,4.11
2018-02-24T08:02:04.732Z,5.05
2018-02-24T08:04:34.381Z,5.86
2018-02-24T08:07:05.058Z,5.88
2018-02-24T08:09:34.341Z,6.28
2018-02-24T08:12:05.672Z,6.60
2018-02-24T08:14:34.950Z,6.61
2018-02-24T08:17:05.472Z,6.62
2018-02-24T08:19:35.624Z,6.80
2018-02-24T08:22:05.613Z,6.56
2018-02-24T08:24:34.972Z,6.66
2018-02-24T08:27:05.615Z,6.90
2018-02-24T08:29:34.795Z,6.91
2018-02-24T08:32:04.731Z,7.06
2018-02-24T08:34:34.443Z,7.14
2018-02-24T08:37:03.935Z,7.14
2018-02-24T08:39:33.242Z,7.25
2018-02-24T08:42:04.942Z,6.85
2018-02-24T08:44:34.224Z,6.91
2018-02-24T08:47:03.736Z,7.17
2018-02-24T08:49:33.397Z,7.40
2018-02-24T08:52:04.867Z,7.15
2018-02-24T08:54:34.471Z,7.33
2018-02-24T08:57:04.263Z,7.48
2018-02-24T08:59:33.520Z,7.41
2018-02-24T09:02:03.949Z,7.47
2018-02-24T09:04:33.568Z,7.63
2018-02-24T09:07:03.041Z,7.63
2018-02-24T09:09:32.291Z,7.99
2018-02-24T09:12:02.966Z,8.39
2018-02-24T09:14:32.382Z,8.42
2018-02-24T09:17:02.372Z,8.46
2018-02-24T09:19:32.176Z,8.57
2018-02-24T09:22:02.042Z,8.54
2018-02-24T09:24:31.521Z,8.83
2018-02-24T09:27:01.231Z,8.94
2018-02-24T09:29:30.812Z,9.34
2018-02-24T09:32:00.104Z,9.21
2018-02-24T09:34:29.929Z,9.49
2018-02-24T09:36:59.180Z,9.70
2018-02-24T09:39:28.663Z,10.02
2018-02-24T09:41:58.197Z,10.25
2018-02-24T09:44:27.737Z,10.27
2018-02-24T09:46:57.020Z,10.29
2018-02-24T09:49:26.642Z,10.65
2018-02-24T09:51:55.869Z,10.51
2018-02-24T09:54:25.090Z,10.61
2018-02-24T09:56:54.692Z,10.65
2018-02-24T09:59:23.960Z,10.29
2018-02-24T10:01:53.247Z,10.28
2018-02-24T10:04:23.034Z,10.53
2018-02-24T10:06:52.474Z,10.42
2018-02-24T10:09:21.821Z,10.27
2018-02-24T10:11:51.586Z,10.15
2018-02-24T10:14:20.861Z,10.35
2018-02-24T10:16:50.123Z,10.54
2018-02-24T10:19:19.690Z,10.69
2018-02-24T10:21:49.614Z,10.89
2018-02-24T10:26:55.713Z,11.03
2018-02-24T10:29:25.043Z,11.38
2018-02-24T10:31:54.531Z,11.14
2018-02-24T10:34:24.165Z,11.52
2018-02-24T10:36:53.498Z,11.57
2018-02-24T10:39:22.765Z,11.53
2018-02-24T10:41:52.434Z,11.65
2018-02-24T10:44:21.776Z,11.74
2018-02-24T10:46:51.056Z,11.80
2018-02-24T10:49:20.690Z,12.06
2018-02-24T10:51:49.934Z,12.09
2018-02-24T10:54:19.198Z,12.05
2018-02-24T10:56:48.990Z,12.16
2018-02-24T10:59:18.285Z,12.24
2018-02-24T11:01:47.764Z,12.57
2018-02-24T11:04:17.483Z,12.54
2018-02-24T11:06:46.714Z,12.50
2018-02-24T11:09:15.926Z,12.48
2018-02-24T11:11:45.470Z,12.72
2018-02-24T11:14:14.731Z,13.02
2018-02-24T11:16:44.011Z,13.03
2018-02-24T11:19:13.584Z,13.14
2018-02-24T11:21:42.837Z,13.26
2018-02-24T11:24:12.123Z,13.37
2018-02-24T11:26:42.726Z,13.65
2018-02-24T11:29:12.000Z,13.26
2018-02-24T11:31:41.276Z,13.43
2018-02-24T11:34:12.085Z,13.25
2018-02-24T11:36:41.302Z,13.34
2018-02-24T11:39:10.512Z,13.38
2018-02-24T11:41:40.578Z,12.98
2018-02-24T11:44:09.842Z,13.42
2018-02-24T11:46:39.064Z,13.69
2018-02-24T11:49:08.314Z,13.87
2018-02-24T11:51:37.564Z,13.60
2018-02-24T11:54:08.170Z,13.72
2018-02-24T11:56:37.459Z,13.90
2018-02-24T11:59:06.708Z,13.92
2018-02-24T12:01:36.404Z,13.95
2018-02-24T12:04:06.636Z,14.04
2018-02-24T12:06:36.649Z,14.19
2018-02-24T12:09:06.405Z,14.23
2018-02-24T12:11:35.754Z,14.43
2018-02-24T12:14:05.836Z,14.38
2018-02-24T12:16:35.390Z,14.34
2018-02-24T12:19:04.631Z,14.43
2018-02-24T12:21:33.837Z,14.20
2018-02-24T12:24:04.574Z,14.16
2018-02-24T12:26:34.188Z,14.66
2018-02-24T12:29:04.033Z,14.38
2018-02-24T12:31:33.344Z,13.85
2018-02-24T12:34:04.565Z,14.34
2018-02-24T12:36:34.257Z,14.32
2018-02-24T12:39:03.662Z,14.45
2018-02-24T12:41:32.903Z,14.88
2018-02-24T12:44:03.005Z,14.40
2018-02-24T12:46:32.301Z,14.78
2018-02-24T12:49:01.761Z,14.66
2018-02-24T12:51:31.589Z,14.87
2018-02-24T12:54:00.854Z,14.59
2018-02-24T12:56:30.217Z,14.96
2018-02-24T12:58:59.876Z,14.98
2018-02-24T13:01:29.216Z,14.55
2018-02-24T13:03:58.424Z,14.42
2018-02-24T13:06:28.005Z,14.76
2018-02-24T13:08:57.226Z,14.89
2018-02-24T13:11:26.441Z,15.03
2018-02-24T13:13:55.708Z,15.10
2018-02-24T13:16:24.899Z,15.36
2018-02-24T13:18:55.619Z,14.88
2018-02-24T13:21:24.922Z,14.80
2018-02-24T13:23:54.171Z,14.89
2018-02-24T13:26:23.840Z,14.77
2018-02-24T13:28:53.053Z,14.50
2018-02-24T13:31:22.467Z,14.80
2018-02-24T13:33:53.197Z,14.68
2018-02-24T13:36:22.587Z,14.89
2018-02-24T13:38:51.966Z,15.11
2018-02-24T13:41:21.734Z,15.18
2018-02-24T13:43:51.638Z,15.17
2018-02-24T13:46:20.839Z,14.78
2018-02-24T13:48:51.528Z,14.70
2018-02-24T13:51:20.841Z,15.06
2018-02-24T13:53:50.063Z,15.20
2018-02-24T13:56:19.346Z,15.23
2018-02-24T13:58:49.099Z,14.96
2018-02-24T14:03:47.453Z,13.74
2018-02-24T14:06:16.992Z,13.74
2018-02-24T14:08:46.806Z,13.11
2018-02-24T14:11:16.221Z,12.69
2018-02-24T14:16:27.458Z,13.17
2018-02-24T14:18:57.119Z,13.18
2018-02-24T14:21:26.415Z,13.25
2018-02-24T14:23:56.758Z,13.01
2018-02-24T14:26:26.033Z,12.44
2018-02-24T14:28:55.365Z,11.94
2018-02-24T14:31:25.058Z,11.72
2018-02-24T14:33:55.038Z,11.82
2018-02-24T14:36:24.399Z,11.83
2018-02-24T14:38:54.765Z,12.23
2018-02-24T14:41:24.053Z,12.56
2018-02-24T14:43:53.602Z,12.84
2018-02-24T14:46:23.667Z,12.56
2018-02-24T14:48:52.906Z,11.59
2018-02-24T14:51:22.162Z,11.30
2018-02-24T14:53:51.773Z,10.66
2018-02-24T14:56:21.032Z,10.55
2018-02-24T14:58:50.302Z,9.92
2018-02-24T15:01:19.894Z,9.99
2018-02-24T15:03:49.180Z,10.17
2018-02-24T15:06:18.530Z,10.03
2018-02-24T15:08:48.778Z,9.80
2018-02-24T15:11:18.061Z,9.42
2018-02-24T15:13:49.156Z,9.38
2018-02-24T15:16:19.525Z,9.35
2018-02-24T15:18:49.112Z,9.16
2018-02-24T15:21:19.193Z,9.14
2018-02-24T15:23:49.350Z,9.20
2018-02-24T15:26:19.052Z,9.03
2018-02-24T15:28:48.848Z,8.82
2018-02-24T15:31:19.068Z,8.76
2018-02-24T15:33:48.725Z,8.76
2018-02-24T15:36:18.064Z,8.78
2018-02-24T15:38:47.740Z,8.76
2018-02-24T15:41:17.360Z,8.95
2018-02-24T15:43:47.509Z,9.14
2018-02-24T15:46:17.790Z,9.54
2018-02-24T15:48:47.343Z,9.90
2018-02-24T15:51:17.297Z,10.22
2018-02-24T15:53:47.179Z,10.39
2018-02-24T15:56:17.058Z,10.58
2018-02-24T15:58:46.709Z,10.75
2018-02-24T16:01:16.369Z,10.30
2018-02-24T16:03:45.585Z,10.46
2018-02-24T16:06:14.818Z,10.72
2018-02-24T16:08:44.666Z,10.69
2018-02-24T16:11:13.926Z,9.77
2018-02-24T16:13:43.513Z,9.89
2018-02-24T16:16:13.791Z,9.77
2018-02-24T16:18:43.488Z,9.24
2018-02-24T16:21:13.267Z,8.95
2018-02-24T16:23:42.990Z,8.62
2018-02-24T16:26:12.187Z,8.07
2018-02-24T16:28:41.366Z,7.72
2018-02-24T16:31:11.126Z,7.28
2018-02-24T16:33:40.999Z,7.14
2018-02-24T16:36:10.215Z,6.86
2018-02-24T16:38:39.920Z,6.76
2018-02-24T16:41:09.180Z,6.61
2018-02-24T16:43:38.459Z,6.54
2018-02-24T16:46:07.702Z,6.29
2018-02-24T16:48:36.944Z,6.14
2018-02-24T16:51:06.783Z,6.00
2018-02-24T16:53:36.006Z,5.97
2018-02-24T16:56:06.148Z,6.00
2018-02-24T16:58:35.881Z,5.75
2018-02-24T17:01:05.283Z,5.81
2018-02-24T17:03:34.525Z,5.83
2018-02-24T17:06:04.960Z,5.73
2018-02-24T17:08:34.216Z,5.71
2018-02-24T17:11:03.446Z,5.52
2018-02-24T17:13:33.321Z,5.42
2018-02-24T17:16:04.627Z,5.29
2018-02-24T17:18:33.894Z,5.16
2018-02-24T17:21:04.040Z,5.04
2018-02-24T17:23:33.489Z,5.14
2018-02-24T17:26:03.622Z,5.20
2018-02-24T17:28:33.287Z,5.16
2018-02-24T17:31:02.555Z,5.16
2018-02-24T17:33:31.915Z,5.13
2018-02-24T17:36:01.604Z,5.10
2018-02-24T17:38:31.587Z,5.08
2018-02-24T17:41:00.815Z,4.99
2018-02-24T17:43:30.826Z,4.96
2018-02-24T17:46:00.276Z,4.98
2018-02-24T17:48:29.878Z,4.99
2018-02-24T17:51:01.849Z,4.97
2018-02-24T17:53:32.552Z,4.88
2018-02-24T17:56:02.688Z,4.86
2018-02-24T17:58:32.200Z,4.65
2018-02-24T18:01:01.971Z,4.62
2018-02-24T18:03:33.823Z,4.56
2018-02-24T18:06:04.365Z,4.47
2018-02-24T18:08:33.728Z,4.47
2018-02-24T18:11:03.560Z,4.57
2018-02-24T18:13:33.166Z,4.56
2018-02-24T18:16:04.525Z,4.50
2018-02-24T18:18:34.552Z,4.47
2018-02-24T18:21:04.200Z,4.41
2018-02-24T18:23:33.448Z,4.39
2018-02-24T18:26:05.887Z,4.31
2018-02-24T18:28:35.270Z,4.29
2018-02-24T18:31:04.689Z,4.20
2018-02-24T18:33:36.331Z,4.18
2018-02-24T18:36:06.717Z,4.12
2018-02-24T18:38:35.961Z,4.03
2018-02-24T18:41:05.744Z,4.04
2018-02-24T18:43:34.940Z,4.07
2018-02-24T18:46:05.114Z,4.08
2018-02-24T18:48:35.214Z,4.09
2018-02-24T18:51:04.741Z,4.02
2018-02-24T18:53:33.947Z,4.03
2018-02-24T18:56:05.051Z,4.05
2018-02-24T18:58:34.254Z,4.10
2018-02-24T19:01:03.955Z,4.05
2018-02-24T19:03:33.756Z,4.05
2018-02-24T19:06:04.534Z,4.07
2018-02-24T19:08:34.901Z,4.01
2018-02-24T19:11:04.718Z,3.93
2018-02-24T19:13:34.089Z,3.92
2018-02-24T19:16:04.497Z,3.93
2018-02-24T19:18:34.583Z,3.96
2018-02-24T19:21:04.228Z,3.89
2018-02-24T19:23:33.494Z,3.95
2018-02-24T19:26:03.859Z,3.79
2018-02-24T19:28:33.057Z,3.76
2018-02-24T19:31:02.545Z,3.80
2018-02-24T19:33:32.247Z,3.77
2018-02-24T19:36:03.278Z,3.75
2018-02-24T19:38:33.379Z,3.74
2018-02-24T19:41:03.042Z,3.60
2018-02-24T19:43:32.538Z,3.66
2018-02-24T19:46:02.889Z,3.70
2018-02-24T19:48:32.706Z,3.74
2018-02-24T19:51:02.490Z,3.79
2018-02-24T19:53:31.868Z,3.74
2018-02-24T19:56:02.333Z,3.74
2018-02-24T19:58:31.954Z,3.67
2018-02-24T20:01:01.399Z,3.62
2018-02-24T20:03:31.244Z,3.60
2018-02-24T20:06:00.511Z,3.52
2018-02-24T20:08:29.918Z,3.61
2018-02-24T20:11:00.440Z,3.61
2018-02-24T20:13:29.779Z,3.59
2018-02-24T20:15:59.007Z,3.52
2018-02-24T20:18:28.726Z,3.50
2018-02-24T20:20:57.940Z,3.44
2018-02-24T20:23:27.174Z,3.37
2018-02-24T20:25:56.812Z,3.34
2018-02-24T20:28:26.266Z,3.32
2018-02-24T20:30:55.912Z,3.33
2018-02-24T20:33:25.529Z,3.31
2018-02-24T20:35:54.746Z,3.30
2018-02-24T20:38:24.032Z,3.32
2018-02-24T20:40:54.065Z,3.29
2018-02-24T20:43:23.394Z,3.17
2018-02-24T20:45:52.771Z,3.12
2018-02-24T20:48:22.618Z,3.05
2018-02-24T20:50:51.841Z,3.04
2018-02-24T20:53:21.099Z,3.10
2018-02-24T20:55:50.848Z,3.02
2018-02-24T20:58:20.161Z,2.99
2018-02-24T21:00:49.471Z,3.03
2018-02-24T21:03:19.216Z,3.01
2018-02-24T21:05:48.449Z,2.89
2018-02-24T21:08:17.674Z,2.81
2018-02-24T21:10:47.283Z,2.81
2018-02-24T21:13:16.518Z,2.79
2018-02-24T21:15:46.190Z,2.82
2018-02-24T21:18:15.993Z,2.76
2018-02-24T21:20:45.263Z,2.70
2018-02-24T21:23:14.491Z,2.71
2018-02-24T21:25:44.314Z,2.67
2018-02-24T21:28:13.550Z,2.72
2018-02-24T21:30:42.912Z,2.64
2018-02-24T21:33:12.617Z,2.57
2018-02-24T21:35:41.928Z,2.51
2018-02-24T21:38:11.110Z,2.43
2018-02-24T21:40:41.197Z,2.36
2018-02-24T21:43:11.183Z,2.31
2018-02-24T21:45:41.219Z,2.35
2018-02-24T21:48:10.755Z,2.39
2018-02-24T21:50:40.090Z,2.35
2018-02-24T21:53:09.391Z,2.31
2018-02-24T21:55:40.092Z,2.30
2018-02-24T21:58:09.285Z,2.26
2018-02-24T22:00:38.631Z,2.25
2018-02-24T22:03:10.286Z,2.12
2018-02-24T22:05:39.780Z,2.08
2018-02-24T22:08:09.005Z,2.13
2018-02-24T22:10:38.800Z,2.08
2018-02-24T22:13:08.057Z,1.87
2018-02-24T22:15:37.525Z,1.93
2018-02-24T22:18:07.211Z,1.94
2018-02-24T22:20:36.468Z,1.96
2018-02-24T22:23:05.719Z,1.95
2018-02-24T22:25:35.378Z,1.95
2018-02-24T22:28:05.321Z,2.00
2018-02-24T22:30:34.662Z,1.92
2018-02-24T22:33:04.506Z,1.98
2018-02-24T22:35:33.684Z,1.82
2018-02-24T22:38:04.392Z,1.75
2018-02-24T22:40:35.388Z,1.72
2018-02-24T22:43:04.852Z,1.67
2018-02-24T22:45:34.070Z,1.72
2018-02-24T22:48:08.461Z,1.57
2018-02-24T22:50:37.983Z,1.63
2018-02-24T22:53:07.155Z,1.65
2018-02-24T22:55:36.801Z,1.70
2018-02-24T22:58:05.991Z,1.63
2018-02-24T23:00:35.200Z,1.57
2018-02-24T23:03:04.660Z,1.48
2018-02-24T23:05:33.871Z,1.45
2018-02-24T23:08:04.094Z,1.48
2018-02-24T23:10:34.190Z,1.46
2018-02-24T23:13:04.030Z,1.51
2018-02-24T23:15:34.792Z,1.48
2018-02-24T23:18:06.141Z,1.38
2018-02-24T23:20:35.386Z,1.43
2018-02-24T23:23:05.142Z,1.34
2018-02-24T23:25:34.488Z,1.40
2018-02-24T23:28:04.687Z,1.39
2018-02-24T23:30:36.675Z,1.40
2018-02-24T23:33:05.981Z,1.34
2018-02-24T23:35:35.343Z,1.27
2018-02-24T23:38:06.597Z,1.16
2018-02-24T23:40:35.920Z,1.05
2018-02-24T23:43:05.202Z,1.06
2018-02-24T23:45:34.779Z,1.04
2018-02-24T23:48:04.843Z,1.01
2018-02-24T23:50:34.270Z,1.00
2018-02-24T23:53:04.308Z,1.05
2018-02-24T23:55:34.500Z,1.06
2018-02-24T23:58:05.952Z,0.95
